sensor_id;sensor_type;location;lat;lon;timestamp;P1;durP1;ratioP1;P2;durP2;ratioP2
9254;SDS011;4663;49.120;9.730;2023-03-12T00:01:10;27.30;;;25.60;;
9254;SDS011;4663;49.120;9.730;2023-03-12T00:03:37;25.33;;;23.93;;
9254;SDS011;4663;49.120;9.730;2023-03-12T00:06:04;27.07;;;25.27;;
9254;SDS011;4663;49.120;9.730;2023-03-12T00:08:30;29.17;;;26.93;;
9254;SDS011;4663;49.120;9.730;2023-03-12T00:10:55;25.53;;;23.93;;
9254;SDS011;4663;49.120;9.730;2023-03-12T00:13:21;24.80;;;23.13;;
9254;SDS011;4663;49.120;9.730;2023-03-12T00:15:46;24.17;;;22.73;;
9254;SDS011;4663;49.120;9.730;2023-03-12T00:18:11;22.83;;;21.47;;
9254;SDS011;4663;49.120;9.730;2023-03-12T00:20:37;25.63;;;23.87;;
9254;SDS011;4663;49.120;9.730;2023-03-12T00:23:02;25.03;;;23.37;;
9254;SDS011;4663;49.120;9.730;2023-03-12T00:25:27;24.47;;;22.73;;
9254;SDS011;4663;49.120;9.730;2023-03-12T00:27:53;22.43;;;20.80;;
9254;SDS011;4663;49.120;9.730;2023-03-12T00:30:18;20.57;;;19.03;;
9254;SDS011;4663;49.120;9.730;2023-03-12T00:32:44;20.60;;;19.20;;
9254;SDS011;4663;49.120;9.730;2023-03-12T00:35:09;19.00;;;17.40;;
9254;SDS011;4663;49.120;9.730;2023-03-12T00:37:35;16.33;;;15.13;;
9254;SDS011;4663;49.120;9.730;2023-03-12T00:40:01;18.07;;;16.80;;
9254;SDS011;4663;49.120;9.730;2023-03-12T00:42:29;18.90;;;17.33;;
9254;SDS011;4663;49.120;9.730;2023-03-12T00:44:55;20.07;;;18.47;;
9254;SDS011;4663;49.120;9.730;2023-03-12T00:47:20;20.43;;;18.73;;
9254;SDS011;4663;49.120;9.730;2023-03-12T00:49:45;18.73;;;17.40;;
9254;SDS011;4663;49.120;9.730;2023-03-12T00:52:11;19.53;;;18.00;;
9254;SDS011;4663;49.120;9.730;2023-03-12T00:54:36;18.83;;;17.47;;
9254;SDS011;4663;49.120;9.730;2023-03-12T00:57:02;18.10;;;16.77;;
9254;SDS011;4663;49.120;9.730;2023-03-12T00:59:27;17.17;;;15.93;;
9254;SDS011;4663;49.120;9.730;2023-03-12T01:01:53;18.70;;;17.20;;
9254;SDS011;4663;49.120;9.730;2023-03-12T01:04:18;19.10;;;17.73;;
9254;SDS011;4663;49.120;9.730;2023-03-12T01:06:44;18.80;;;17.40;;
9254;SDS011;4663;49.120;9.730;2023-03-12T01:09:09;19.43;;;18.03;;
9254;SDS011;4663;49.120;9.730;2023-03-12T01:11:35;17.40;;;16.10;;
9254;SDS011;4663;49.120;9.730;2023-03-12T01:14:02;17.17;;;15.67;;
9254;SDS011;4663;49.120;9.730;2023-03-12T01:16:29;17.57;;;16.07;;
9254;SDS011;4663;49.120;9.730;2023-03-12T01:18:55;15.80;;;14.63;;
9254;SDS011;4663;49.120;9.730;2023-03-12T01:21:22;16.90;;;15.70;;
9254;SDS011;4663;49.120;9.730;2023-03-12T01:23:48;16.63;;;15.33;;
9254;SDS011;4663;49.120;9.730;2023-03-12T01:26:13;16.43;;;15.23;;
9254;SDS011;4663;49.120;9.730;2023-03-12T01:28:39;16.37;;;15.23;;
9254;SDS011;4663;49.120;9.730;2023-03-12T01:31:07;16.50;;;15.10;;
9254;SDS011;4663;49.120;9.730;2023-03-12T01:33:34;18.17;;;16.60;;
9254;SDS011;4663;49.120;9.730;2023-03-12T01:35:59;17.17;;;15.77;;
9254;SDS011;4663;49.120;9.730;2023-03-12T01:38:25;16.50;;;15.23;;
9254;SDS011;4663;49.120;9.730;2023-03-12T01:40:50;17.73;;;16.33;;
9254;SDS011;4663;49.120;9.730;2023-03-12T01:43:26;17.30;;;15.90;;
9254;SDS011;4663;49.120;9.730;2023-03-12T01:48:29;16.97;;;15.53;;
9254;SDS011;4663;49.120;9.730;2023-03-12T01:51:00;16.80;;;15.40;;
9254;SDS011;4663;49.120;9.730;2023-03-12T01:53:27;16.23;;;14.83;;
9254;SDS011;4663;49.120;9.730;2023-03-12T01:55:53;17.40;;;15.93;;
9254;SDS011;4663;49.120;9.730;2023-03-12T01:58:19;18.40;;;16.67;;
9254;SDS011;4663;49.120;9.730;2023-03-12T02:00:46;17.67;;;16.10;;
9254;SDS011;4663;49.120;9.730;2023-03-12T02:03:11;18.47;;;17.10;;
9254;SDS011;4663;49.120;9.730;2023-03-12T02:05:52;16.87;;;15.57;;
9254;SDS011;4663;49.120;9.730;2023-03-12T02:08:22;18.00;;;16.60;;
9254;SDS011;4663;49.120;9.730;2023-03-12T02:10:48;18.60;;;17.23;;
9254;SDS011;4663;49.120;9.730;2023-03-12T02:13:14;18.97;;;17.67;;
9254;SDS011;4663;49.120;9.730;2023-03-12T02:15:40;20.97;;;19.10;;
9254;SDS011;4663;49.120;9.730;2023-03-12T02:18:06;20.77;;;19.03;;
9254;SDS011;4663;49.120;9.730;2023-03-12T02:20:38;21.63;;;20.07;;
9254;SDS011;4663;49.120;9.730;2023-03-12T02:25:43;23.63;;;21.93;;
9254;SDS011;4663;49.120;9.730;2023-03-12T02:28:12;24.63;;;23.00;;
9254;SDS011;4663;49.120;9.730;2023-03-12T02:30:41;28.17;;;26.13;;
9254;SDS011;4663;49.120;9.730;2023-03-12T02:33:08;27.57;;;25.63;;
9254;SDS011;4663;49.120;9.730;2023-03-12T02:35:35;28.73;;;26.80;;
9254;SDS011;4663;49.120;9.730;2023-03-12T02:38:01;26.03;;;24.17;;
9254;SDS011;4663;49.120;9.730;2023-03-12T02:40:34;27.63;;;25.67;;
9254;SDS011;4663;49.120;9.730;2023-03-12T02:43:04;24.03;;;22.43;;
9254;SDS011;4663;49.120;9.730;2023-03-12T02:45:30;28.83;;;26.73;;
9254;SDS011;4663;49.120;9.730;2023-03-12T02:47:58;28.67;;;26.70;;
9254;SDS011;4663;49.120;9.730;2023-03-12T02:50:23;27.63;;;25.73;;
9254;SDS011;4663;49.120;9.730;2023-03-12T02:52:48;29.73;;;27.70;;
9254;SDS011;4663;49.120;9.730;2023-03-12T02:55:14;31.70;;;29.50;;
9254;SDS011;4663;49.120;9.730;2023-03-12T02:57:39;30.47;;;28.57;;
9254;SDS011;4663;49.120;9.730;2023-03-12T03:00:07;31.90;;;29.67;;
9254;SDS011;4663;49.120;9.730;2023-03-12T03:02:37;32.30;;;30.10;;
9254;SDS011;4663;49.120;9.730;2023-03-12T03:05:03;30.77;;;28.57;;
9254;SDS011;4663;49.120;9.730;2023-03-12T03:07:29;31.47;;;29.37;;
9254;SDS011;4663;49.120;9.730;2023-03-12T03:09:54;30.50;;;28.30;;
9254;SDS011;4663;49.120;9.730;2023-03-12T03:12:19;31.43;;;29.33;;
9254;SDS011;4663;49.120;9.730;2023-03-12T03:14:46;30.17;;;28.20;;
9254;SDS011;4663;49.120;9.730;2023-03-12T03:17:12;29.23;;;27.33;;
9254;SDS011;4663;49.120;9.730;2023-03-12T03:19:37;31.03;;;28.97;;
9254;SDS011;4663;49.120;9.730;2023-03-12T03:22:02;29.80;;;27.77;;
9254;SDS011;4663;49.120;9.730;2023-03-12T03:24:28;28.83;;;26.70;;
9254;SDS011;4663;49.120;9.730;2023-03-12T03:26:53;29.00;;;27.10;;
9254;SDS011;4663;49.120;9.730;2023-03-12T03:29:18;31.33;;;29.33;;
9254;SDS011;4663;49.120;9.730;2023-03-12T03:31:44;30.23;;;27.70;;
9254;SDS011;4663;49.120;9.730;2023-03-12T03:34:09;31.53;;;29.10;;
9254;SDS011;4663;49.120;9.730;2023-03-12T03:36:34;29.53;;;27.23;;
9254;SDS011;4663;49.120;9.730;2023-03-12T03:39:00;31.07;;;28.90;;
9254;SDS011;4663;49.120;9.730;2023-03-12T03:41:25;31.00;;;28.63;;
9254;SDS011;4663;49.120;9.730;2023-03-12T03:43:54;31.57;;;29.47;;
9254;SDS011;4663;49.120;9.730;2023-03-12T03:46:20;30.20;;;27.97;;
9254;SDS011;4663;49.120;9.730;2023-03-12T03:48:46;28.63;;;26.73;;
9254;SDS011;4663;49.120;9.730;2023-03-12T03:51:11;29.07;;;27.17;;
9254;SDS011;4663;49.120;9.730;2023-03-12T03:53:37;31.00;;;28.90;;
9254;SDS011;4663;49.120;9.730;2023-03-12T03:56:09;31.53;;;29.10;;
9254;SDS011;4663;49.120;9.730;2023-03-12T03:58:36;30.60;;;28.60;;
9254;SDS011;4663;49.120;9.730;2023-03-12T04:01:02;30.13;;;27.90;;
9254;SDS011;4663;49.120;9.730;2023-03-12T04:03:28;29.87;;;27.63;;
9254;SDS011;4663;49.120;9.730;2023-03-12T04:05:57;28.80;;;26.87;;
9254;SDS011;4663;49.120;9.730;2023-03-12T04:08:24;29.93;;;27.93;;
9254;SDS011;4663;49.120;9.730;2023-03-12T04:10:50;29.97;;;27.80;;
9254;SDS011;4663;49.120;9.730;2023-03-12T04:13:16;27.67;;;25.87;;
9254;SDS011;4663;49.120;9.730;2023-03-12T04:15:48;30.20;;;28.20;;
9254;SDS011;4663;49.120;9.730;2023-03-12T04:18:15;29.40;;;27.43;;
9254;SDS011;4663;49.120;9.730;2023-03-12T04:20:41;28.27;;;26.37;;
9254;SDS011;4663;49.120;9.730;2023-03-12T04:23:07;27.97;;;26.07;;
9254;SDS011;4663;49.120;9.730;2023-03-12T04:25:32;28.73;;;26.83;;
9254;SDS011;4663;49.120;9.730;2023-03-12T04:27:57;29.13;;;27.00;;
9254;SDS011;4663;49.120;9.730;2023-03-12T04:30:23;28.17;;;26.13;;
9254;SDS011;4663;49.120;9.730;2023-03-12T04:32:48;29.27;;;27.07;;
9254;SDS011;4663;49.120;9.730;2023-03-12T04:35:14;29.17;;;27.07;;
9254;SDS011;4663;49.120;9.730;2023-03-12T04:37:39;30.27;;;28.23;;
9254;SDS011;4663;49.120;9.730;2023-03-12T04:40:05;28.17;;;26.17;;
9254;SDS011;4663;49.120;9.730;2023-03-12T04:42:35;27.37;;;25.67;;
9254;SDS011;4663;49.120;9.730;2023-03-12T04:45:01;30.13;;;27.90;;
9254;SDS011;4663;49.120;9.730;2023-03-12T04:47:29;29.70;;;27.63;;
9254;SDS011;4663;49.120;9.730;2023-03-12T04:49:55;29.77;;;27.67;;
9254;SDS011;4663;49.120;9.730;2023-03-12T04:52:20;30.03;;;27.93;;
9254;SDS011;4663;49.120;9.730;2023-03-12T04:54:45;29.57;;;27.50;;
9254;SDS011;4663;49.120;9.730;2023-03-12T04:57:11;27.73;;;26.00;;
9254;SDS011;4663;49.120;9.730;2023-03-12T04:59:36;28.50;;;26.47;;
9254;SDS011;4663;49.120;9.730;2023-03-12T05:02:01;30.03;;;28.13;;
9254;SDS011;4663;49.120;9.730;2023-03-12T05:04:27;26.67;;;24.77;;
9254;SDS011;4663;49.120;9.730;2023-03-12T05:06:52;27.77;;;25.77;;
9254;SDS011;4663;49.120;9.730;2023-03-12T05:09:18;26.27;;;24.40;;
9254;SDS011;4663;49.120;9.730;2023-03-12T05:11:43;26.47;;;24.63;;
9254;SDS011;4663;49.120;9.730;2023-03-12T05:14:09;26.27;;;24.50;;
9254;SDS011;4663;49.120;9.730;2023-03-12T05:16:36;25.83;;;23.83;;
9254;SDS011;4663;49.120;9.730;2023-03-12T05:19:01;24.23;;;22.43;;
9254;SDS011;4663;49.120;9.730;2023-03-12T05:21:28;24.13;;;22.03;;
9254;SDS011;4663;49.120;9.730;2023-03-12T05:23:53;22.63;;;21.03;;
9254;SDS011;4663;49.120;9.730;2023-03-12T05:28:44;23.93;;;22.13;;
9254;SDS011;4663;49.120;9.730;2023-03-12T05:31:10;22.90;;;21.10;;
9254;SDS011;4663;49.120;9.730;2023-03-12T05:33:36;22.93;;;21.23;;
9254;SDS011;4663;49.120;9.730;2023-03-12T05:36:02;22.93;;;21.27;;
9254;SDS011;4663;49.120;9.730;2023-03-12T05:38:28;22.53;;;20.80;;
9254;SDS011;4663;49.120;9.730;2023-03-12T05:40:54;21.43;;;19.83;;
9254;SDS011;4663;49.120;9.730;2023-03-12T05:43:21;21.20;;;19.73;;
9254;SDS011;4663;49.120;9.730;2023-03-12T05:45:47;22.10;;;20.13;;
9254;SDS011;4663;49.120;9.730;2023-03-12T05:48:13;23.70;;;21.80;;
9254;SDS011;4663;49.120;9.730;2023-03-12T05:50:38;22.77;;;21.07;;
9254;SDS011;4663;49.120;9.730;2023-03-12T05:53:04;21.77;;;20.13;;
9254;SDS011;4663;49.120;9.730;2023-03-12T05:55:29;24.50;;;22.70;;
9254;SDS011;4663;49.120;9.730;2023-03-12T05:57:58;21.97;;;20.20;;
9254;SDS011;4663;49.120;9.730;2023-03-12T06:00:23;21.47;;;19.83;;
9254;SDS011;4663;49.120;9.730;2023-03-12T06:02:48;22.70;;;20.93;;
9254;SDS011;4663;49.120;9.730;2023-03-12T06:05:14;22.17;;;20.47;;
9254;SDS011;4663;49.120;9.730;2023-03-12T06:07:40;22.07;;;20.37;;
9254;SDS011;4663;49.120;9.730;2023-03-12T06:10:05;20.53;;;18.80;;
9254;SDS011;4663;49.120;9.730;2023-03-12T06:12:31;22.40;;;20.57;;
9254;SDS011;4663;49.120;9.730;2023-03-12T06:14:56;21.20;;;19.47;;
9254;SDS011;4663;49.120;9.730;2023-03-12T06:17:22;22.53;;;20.77;;
9254;SDS011;4663;49.120;9.730;2023-03-12T06:19:50;22.13;;;20.63;;
9254;SDS011;4663;49.120;9.730;2023-03-12T06:22:17;21.30;;;19.87;;
9254;SDS011;4663;49.120;9.730;2023-03-12T06:24:43;20.97;;;19.33;;
9254;SDS011;4663;49.120;9.730;2023-03-12T06:27:11;23.93;;;22.03;;
9254;SDS011;4663;49.120;9.730;2023-03-12T06:29:37;22.40;;;20.73;;
9254;SDS011;4663;49.120;9.730;2023-03-12T06:32:02;22.37;;;20.73;;
9254;SDS011;4663;49.120;9.730;2023-03-12T06:34:28;26.40;;;24.53;;
9254;SDS011;4663;49.120;9.730;2023-03-12T06:36:53;25.70;;;24.00;;
9254;SDS011;4663;49.120;9.730;2023-03-12T06:39:18;26.90;;;24.87;;
9254;SDS011;4663;49.120;9.730;2023-03-12T06:41:44;26.20;;;24.33;;
9254;SDS011;4663;49.120;9.730;2023-03-12T06:44:09;28.27;;;26.40;;
9254;SDS011;4663;49.120;9.730;2023-03-12T06:46:34;26.47;;;24.60;;
9254;SDS011;4663;49.120;9.730;2023-03-12T06:49:00;29.93;;;28.03;;
9254;SDS011;4663;49.120;9.730;2023-03-12T06:51:26;31.10;;;29.00;;
9254;SDS011;4663;49.120;9.730;2023-03-12T06:53:52;32.17;;;30.20;;
9254;SDS011;4663;49.120;9.730;2023-03-12T06:56:17;31.87;;;29.90;;
9254;SDS011;4663;49.120;9.730;2023-03-12T06:58:43;33.63;;;31.13;;
9254;SDS011;4663;49.120;9.730;2023-03-12T07:01:08;34.17;;;32.00;;
9254;SDS011;4663;49.120;9.730;2023-03-12T07:03:34;36.70;;;33.77;;
9254;SDS011;4663;49.120;9.730;2023-03-12T07:05:59;37.83;;;35.53;;
9254;SDS011;4663;49.120;9.730;2023-03-12T07:08:25;36.27;;;33.90;;
9254;SDS011;4663;49.120;9.730;2023-03-12T07:10:54;34.73;;;32.60;;
9254;SDS011;4663;49.120;9.730;2023-03-12T07:13:20;38.90;;;36.50;;
9254;SDS011;4663;49.120;9.730;2023-03-12T07:15:46;40.07;;;37.57;;
9254;SDS011;4663;49.120;9.730;2023-03-12T07:18:12;39.07;;;36.67;;
9254;SDS011;4663;49.120;9.730;2023-03-12T07:20:38;39.00;;;36.70;;
9254;SDS011;4663;49.120;9.730;2023-03-12T07:23:05;38.30;;;35.73;;
9254;SDS011;4663;49.120;9.730;2023-03-12T07:25:34;43.30;;;40.00;;
9254;SDS011;4663;49.120;9.730;2023-03-12T07:28:01;40.17;;;37.37;;
9254;SDS011;4663;49.120;9.730;2023-03-12T07:30:28;36.87;;;34.47;;
9254;SDS011;4663;49.120;9.730;2023-03-12T07:32:57;35.23;;;32.90;;
9254;SDS011;4663;49.120;9.730;2023-03-12T07:35:23;33.90;;;31.53;;
9254;SDS011;4663;49.120;9.730;2023-03-12T07:37:48;33.67;;;31.30;;
9254;SDS011;4663;49.120;9.730;2023-03-12T07:40:14;30.53;;;28.47;;
9254;SDS011;4663;49.120;9.730;2023-03-12T07:42:39;29.07;;;27.07;;
9254;SDS011;4663;49.120;9.730;2023-03-12T07:45:05;26.07;;;24.27;;
9254;SDS011;4663;49.120;9.730;2023-03-12T07:47:32;24.87;;;23.20;;
9254;SDS011;4663;49.120;9.730;2023-03-12T07:49:57;26.60;;;24.60;;
9254;SDS011;4663;49.120;9.730;2023-03-12T07:52:22;26.07;;;23.97;;
9254;SDS011;4663;49.120;9.730;2023-03-12T07:54:48;23.70;;;22.00;;
9254;SDS011;4663;49.120;9.730;2023-03-12T07:57:13;22.97;;;21.30;;
9254;SDS011;4663;49.120;9.730;2023-03-12T07:59:38;22.03;;;20.43;;
9254;SDS011;4663;49.120;9.730;2023-03-12T08:02:05;23.17;;;21.37;;
9254;SDS011;4663;49.120;9.730;2023-03-12T08:04:30;21.23;;;19.80;;
9254;SDS011;4663;49.120;9.730;2023-03-12T08:06:56;22.27;;;20.67;;
9254;SDS011;4663;49.120;9.730;2023-03-12T08:09:21;22.20;;;20.67;;
9254;SDS011;4663;49.120;9.730;2023-03-12T08:11:46;28.47;;;26.27;;
9254;SDS011;4663;49.120;9.730;2023-03-12T08:14:12;28.07;;;25.93;;
9254;SDS011;4663;49.120;9.730;2023-03-12T08:16:37;33.23;;;31.03;;
9254;SDS011;4663;49.120;9.730;2023-03-12T08:19:02;41.13;;;38.27;;
9254;SDS011;4663;49.120;9.730;2023-03-12T08:21:28;42.03;;;39.17;;
9254;SDS011;4663;49.120;9.730;2023-03-12T08:23:53;54.13;;;51.13;;
9254;SDS011;4663;49.120;9.730;2023-03-12T08:26:18;56.40;;;53.07;;
9254;SDS011;4663;49.120;9.730;2023-03-12T08:28:44;60.23;;;56.73;;
9254;SDS011;4663;49.120;9.730;2023-03-12T08:31:09;53.63;;;50.60;;
9254;SDS011;4663;49.120;9.730;2023-03-12T08:33:35;45.60;;;42.87;;
9254;SDS011;4663;49.120;9.730;2023-03-12T08:36:01;42.73;;;40.20;;
9254;SDS011;4663;49.120;9.730;2023-03-12T08:38:26;40.50;;;37.97;;
9254;SDS011;4663;49.120;9.730;2023-03-12T08:40:57;36.23;;;33.53;;
9254;SDS011;4663;49.120;9.730;2023-03-12T08:43:24;37.67;;;35.10;;
9254;SDS011;4663;49.120;9.730;2023-03-12T08:45:57;37.27;;;34.77;;
9254;SDS011;4663;49.120;9.730;2023-03-12T08:48:24;37.20;;;34.87;;
9254;SDS011;4663;49.120;9.730;2023-03-12T08:50:50;38.00;;;35.77;;
9254;SDS011;4663;49.120;9.730;2023-03-12T08:53:18;40.47;;;38.20;;
9254;SDS011;4663;49.120;9.730;2023-03-12T08:55:43;38.87;;;36.30;;
9254;SDS011;4663;49.120;9.730;2023-03-12T08:58:09;36.23;;;33.63;;
9254;SDS011;4663;49.120;9.730;2023-03-12T09:00:35;31.17;;;29.07;;
9254;SDS011;4663;49.120;9.730;2023-03-12T09:03:00;23.73;;;22.17;;
9254;SDS011;4663;49.120;9.730;2023-03-12T09:05:26;21.27;;;19.60;;
9254;SDS011;4663;49.120;9.730;2023-03-12T09:07:57;19.57;;;18.17;;
9254;SDS011;4663;49.120;9.730;2023-03-12T09:10:22;21.47;;;19.77;;
9254;SDS011;4663;49.120;9.730;2023-03-12T09:12:49;23.03;;;20.93;;
9254;SDS011;4663;49.120;9.730;2023-03-12T09:15:14;20.07;;;18.47;;
9254;SDS011;4663;49.120;9.730;2023-03-12T09:17:40;20.57;;;19.07;;
9254;SDS011;4663;49.120;9.730;2023-03-12T09:20:06;20.97;;;19.53;;
9254;SDS011;4663;49.120;9.730;2023-03-12T09:22:36;20.27;;;18.87;;
9254;SDS011;4663;49.120;9.730;2023-03-12T09:25:02;24.23;;;22.43;;
9254;SDS011;4663;49.120;9.730;2023-03-12T09:27:28;35.80;;;33.63;;
9254;SDS011;4663;49.120;9.730;2023-03-12T09:29:54;36.07;;;34.00;;
9254;SDS011;4663;49.120;9.730;2023-03-12T09:32:19;32.90;;;30.80;;
9254;SDS011;4663;49.120;9.730;2023-03-12T09:34:44;32.57;;;30.57;;
9254;SDS011;4663;49.120;9.730;2023-03-12T09:37:10;32.80;;;30.37;;
9254;SDS011;4663;49.120;9.730;2023-03-12T09:39:35;29.30;;;27.30;;
9254;SDS011;4663;49.120;9.730;2023-03-12T09:42:02;28.87;;;27.07;;
9254;SDS011;4663;49.120;9.730;2023-03-12T09:44:35;26.17;;;24.57;;
9254;SDS011;4663;49.120;9.730;2023-03-12T09:47:09;23.10;;;21.50;;
9254;SDS011;4663;49.120;9.730;2023-03-12T09:55:45;17.63;;;16.53;;
9254;SDS011;4663;49.120;9.730;2023-03-12T09:58:16;17.67;;;16.57;;
9254;SDS011;4663;49.120;9.730;2023-03-12T10:00:48;17.03;;;16.03;;
9254;SDS011;4663;49.120;9.730;2023-03-12T10:06:10;20.23;;;18.87;;
9254;SDS011;4663;49.120;9.730;2023-03-12T10:08:49;18.13;;;17.03;;
9254;SDS011;4663;49.120;9.730;2023-03-12T10:11:31;18.80;;;17.60;;
9254;SDS011;4663;49.120;9.730;2023-03-12T10:19:39;35.10;;;33.13;;
9254;SDS011;4663;49.120;9.730;2023-03-12T10:25:11;42.83;;;40.47;;
9254;SDS011;4663;49.120;9.730;2023-03-12T10:27:39;43.13;;;40.73;;
9254;SDS011;4663;49.120;9.730;2023-03-12T10:30:14;41.77;;;39.40;;
9254;SDS011;4663;49.120;9.730;2023-03-12T10:32:44;43.00;;;40.57;;
9254;SDS011;4663;49.120;9.730;2023-03-12T10:35:17;43.07;;;40.63;;
9254;SDS011;4663;49.120;9.730;2023-03-12T10:37:50;44.93;;;42.37;;
9254;SDS011;4663;49.120;9.730;2023-03-12T10:40:39;45.40;;;42.77;;
9254;SDS011;4663;49.120;9.730;2023-03-12T10:43:04;48.03;;;45.30;;
9254;SDS011;4663;49.120;9.730;2023-03-12T10:48:17;51.40;;;48.50;;
9254;SDS011;4663;49.120;9.730;2023-03-12T10:53:43;47.27;;;44.70;;
9254;SDS011;4663;49.120;9.730;2023-03-12T10:56:18;40.83;;;38.60;;
9254;SDS011;4663;49.120;9.730;2023-03-12T10:58:46;41.10;;;38.73;;
9254;SDS011;4663;49.120;9.730;2023-03-12T11:01:23;36.30;;;34.13;;
9254;SDS011;4663;49.120;9.730;2023-03-12T11:03:50;32.57;;;30.67;;
9254;SDS011;4663;49.120;9.730;2023-03-12T11:06:27;28.93;;;27.23;;
9254;SDS011;4663;49.120;9.730;2023-03-12T11:11:46;25.93;;;24.40;;
9254;SDS011;4663;49.120;9.730;2023-03-12T11:14:15;23.67;;;22.10;;
9254;SDS011;4663;49.120;9.730;2023-03-12T11:16:41;26.80;;;24.80;;
9254;SDS011;4663;49.120;9.730;2023-03-12T11:19:06;25.03;;;23.27;;
9254;SDS011;4663;49.120;9.730;2023-03-12T11:21:37;26.83;;;24.93;;
9254;SDS011;4663;49.120;9.730;2023-03-12T11:24:06;24.13;;;22.50;;
9254;SDS011;4663;49.120;9.730;2023-03-12T11:26:49;24.13;;;22.80;;
9254;SDS011;4663;49.120;9.730;2023-03-12T11:29:29;20.93;;;19.50;;
9254;SDS011;4663;49.120;9.730;2023-03-12T11:34:44;26.40;;;24.17;;
9254;SDS011;4663;49.120;9.730;2023-03-12T11:45:28;21.53;;;20.33;;
9254;SDS011;4663;49.120;9.730;2023-03-12T12:23:56;29.93;;;28.07;;
9254;SDS011;4663;49.120;9.730;2023-03-12T12:29:40;36.73;;;34.77;;
9254;SDS011;4663;49.120;9.730;2023-03-12T12:32:15;37.37;;;35.30;;
9254;SDS011;4663;49.120;9.730;2023-03-12T12:37:40;50.83;;;48.03;;
9254;SDS011;4663;49.120;9.730;2023-03-12T12:40:21;48.30;;;45.47;;
9254;SDS011;4663;49.120;9.730;2023-03-12T12:42:55;50.13;;;47.30;;
9254;SDS011;4663;49.120;9.730;2023-03-12T12:45:28;52.73;;;49.40;;
9254;SDS011;4663;49.120;9.730;2023-03-12T12:48:02;42.47;;;40.03;;
9254;SDS011;4663;49.120;9.730;2023-03-12T12:50:34;38.10;;;36.00;;
9254;SDS011;4663;49.120;9.730;2023-03-12T12:53:06;39.87;;;37.63;;
9254;SDS011;4663;49.120;9.730;2023-03-12T12:55:33;36.50;;;34.37;;
9254;SDS011;4663;49.120;9.730;2023-03-12T12:58:29;35.03;;;33.17;;
9254;SDS011;4663;49.120;9.730;2023-03-12T13:01:10;38.63;;;36.20;;
9254;SDS011;4663;49.120;9.730;2023-03-12T13:03:38;34.73;;;32.73;;
9254;SDS011;4663;49.120;9.730;2023-03-12T13:06:04;33.63;;;31.53;;
9254;SDS011;4663;49.120;9.730;2023-03-12T13:13:43;33.90;;;31.53;;
9254;SDS011;4663;49.120;9.730;2023-03-12T13:16:36;32.83;;;30.60;;
9254;SDS011;4663;49.120;9.730;2023-03-12T13:24:13;25.97;;;23.97;;
9254;SDS011;4663;49.120;9.730;2023-03-12T13:29:35;26.80;;;25.00;;
9254;SDS011;4663;49.120;9.730;2023-03-12T13:32:04;35.37;;;32.07;;
9254;SDS011;4663;49.120;9.730;2023-03-12T13:34:43;25.97;;;24.17;;
9254;SDS011;4663;49.120;9.730;2023-03-12T13:37:25;26.67;;;24.57;;
9254;SDS011;4663;49.120;9.730;2023-03-12T13:39:54;23.90;;;22.13;;
9254;SDS011;4663;49.120;9.730;2023-03-12T13:42:32;28.23;;;26.23;;
9254;SDS011;4663;49.120;9.730;2023-03-12T13:48:00;29.93;;;28.23;;
9254;SDS011;4663;49.120;9.730;2023-03-12T13:50:27;30.77;;;29.05;;
9254;SDS011;4663;49.120;9.730;2023-03-12T13:52:59;35.43;;;33.27;;
9254;SDS011;4663;49.120;9.730;2023-03-12T13:55:31;33.63;;;31.63;;
9254;SDS011;4663;49.120;9.730;2023-03-12T14:03:34;37.08;;;35.03;;
9254;SDS011;4663;49.120;9.730;2023-03-12T14:19:01;28.15;;;26.70;;
9254;SDS011;4663;49.120;9.730;2023-03-12T14:21:31;29.38;;;27.73;;
9254;SDS011;4663;49.120;9.730;2023-03-12T14:23:59;26.95;;;25.27;;
9254;SDS011;4663;49.120;9.730;2023-03-12T14:26:32;27.90;;;26.38;;
9254;SDS011;4663;49.120;9.730;2023-03-12T14:31:41;25.02;;;23.60;;
9254;SDS011;4663;49.120;9.730;2023-03-12T14:36:43;20.13;;;18.83;;
9254;SDS011;4663;49.120;9.730;2023-03-12T14:41:58;21.92;;;20.63;;
9254;SDS011;4663;49.120;9.730;2023-03-12T14:44:29;22.88;;;21.60;;
9254;SDS011;4663;49.120;9.730;2023-03-12T14:47:01;24.85;;;23.50;;
9254;SDS011;4663;49.120;9.730;2023-03-12T14:49:37;25.92;;;24.40;;
9254;SDS011;4663;49.120;9.730;2023-03-12T14:52:11;25.90;;;24.20;;
9254;SDS011;4663;49.120;9.730;2023-03-12T14:54:38;25.60;;;24.17;;
9254;SDS011;4663;49.120;9.730;2023-03-12T14:57:04;28.58;;;26.70;;
9254;SDS011;4663;49.120;9.730;2023-03-12T14:59:31;27.60;;;25.92;;
9254;SDS011;4663;49.120;9.730;2023-03-12T15:02:10;24.45;;;22.90;;
9254;SDS011;4663;49.120;9.730;2023-03-12T15:04:39;26.80;;;25.27;;
9254;SDS011;4663;49.120;9.730;2023-03-12T15:07:06;23.00;;;21.60;;
9254;SDS011;4663;49.120;9.730;2023-03-12T15:09:36;22.05;;;20.65;;
9254;SDS011;4663;49.120;9.730;2023-03-12T15:12:14;19.00;;;17.70;;
9254;SDS011;4663;49.120;9.730;2023-03-12T15:14:44;17.33;;;16.23;;
9254;SDS011;4663;49.120;9.730;2023-03-12T15:17:13;15.98;;;14.93;;
9254;SDS011;4663;49.120;9.730;2023-03-12T15:19:41;16.67;;;15.45;;
9254;SDS011;4663;49.120;9.730;2023-03-12T15:22:12;18.80;;;17.00;;
9254;SDS011;4663;49.120;9.730;2023-03-12T15:24:40;16.48;;;15.43;;
9254;SDS011;4663;49.120;9.730;2023-03-12T15:29:45;16.25;;;15.23;;
9254;SDS011;4663;49.120;9.730;2023-03-12T15:32:15;14.38;;;13.48;;
9254;SDS011;4663;49.120;9.730;2023-03-12T15:34:44;15.45;;;14.23;;
9254;SDS011;4663;49.120;9.730;2023-03-12T15:37:18;16.15;;;14.80;;
9254;SDS011;4663;49.120;9.730;2023-03-12T15:39:56;15.95;;;14.75;;
9254;SDS011;4663;49.120;9.730;2023-03-12T15:42:25;15.60;;;14.43;;
9254;SDS011;4663;49.120;9.730;2023-03-12T15:44:58;16.05;;;14.95;;
9254;SDS011;4663;49.120;9.730;2023-03-12T15:47:29;14.20;;;13.20;;
9254;SDS011;4663;49.120;9.730;2023-03-12T15:49:57;15.43;;;14.23;;
9254;SDS011;4663;49.120;9.730;2023-03-12T15:52:40;20.33;;;19.00;;
9254;SDS011;4663;49.120;9.730;2023-03-12T15:57:48;18.42;;;17.15;;
9254;SDS011;4663;49.120;9.730;2023-03-12T16:00:25;20.35;;;18.80;;
9254;SDS011;4663;49.120;9.730;2023-03-12T16:05:30;18.35;;;17.17;;
9254;SDS011;4663;49.120;9.730;2023-03-12T16:08:17;21.30;;;19.90;;
9254;SDS011;4663;49.120;9.730;2023-03-12T16:10:47;24.33;;;22.87;;
9254;SDS011;4663;49.120;9.730;2023-03-12T16:13:14;23.87;;;22.40;;
9254;SDS011;4663;49.120;9.730;2023-03-12T16:15:41;26.27;;;24.60;;
9254;SDS011;4663;49.120;9.730;2023-03-12T16:18:15;27.73;;;25.92;;
9254;SDS011;4663;49.120;9.730;2023-03-12T16:20:45;29.35;;;27.70;;
9254;SDS011;4663;49.120;9.730;2023-03-12T16:23:11;29.52;;;27.63;;
9254;SDS011;4663;49.120;9.730;2023-03-12T16:25:37;29.77;;;28.02;;
9254;SDS011;4663;49.120;9.730;2023-03-12T16:28:04;31.08;;;29.27;;
9254;SDS011;4663;49.120;9.730;2023-03-12T16:30:34;31.08;;;29.27;;
9254;SDS011;4663;49.120;9.730;2023-03-12T16:33:01;33.67;;;31.60;;
9254;SDS011;4663;49.120;9.730;2023-03-12T16:35:29;32.20;;;30.37;;
9254;SDS011;4663;49.120;9.730;2023-03-12T16:37:58;33.15;;;30.88;;
9254;SDS011;4663;49.120;9.730;2023-03-12T16:40:25;30.60;;;28.97;;
9254;SDS011;4663;49.120;9.730;2023-03-12T16:42:52;28.80;;;26.77;;
9254;SDS011;4663;49.120;9.730;2023-03-12T16:45:19;26.17;;;23.97;;
9254;SDS011;4663;49.120;9.730;2023-03-12T16:47:45;22.90;;;21.37;;
9254;SDS011;4663;49.120;9.730;2023-03-12T16:50:17;19.73;;;18.33;;
9254;SDS011;4663;49.120;9.730;2023-03-12T16:52:45;17.70;;;16.27;;
9254;SDS011;4663;49.120;9.730;2023-03-12T16:55:14;18.97;;;17.47;;
9254;SDS011;4663;49.120;9.730;2023-03-12T16:57:41;18.17;;;16.70;;
9254;SDS011;4663;49.120;9.730;2023-03-12T17:00:15;16.03;;;15.00;;
9254;SDS011;4663;49.120;9.730;2023-03-12T17:02:46;15.10;;;13.90;;
9254;SDS011;4663;49.120;9.730;2023-03-12T17:05:12;13.93;;;12.83;;
9254;SDS011;4663;49.120;9.730;2023-03-12T17:07:38;14.23;;;13.03;;
9254;SDS011;4663;49.120;9.730;2023-03-12T17:10:04;15.93;;;14.67;;